sensor_id;sensor_type;location;lat;lon;timestamp;pressure;altitude;pressure_sealevel;temperature;humidity
39897;BME280;25567;48.276;14.242;2023-03-26T00:01:22;97943.50;;;6.59;88.41
39897;BME280;25567;48.276;14.242;2023-03-26T00:03:52;97932.09;;;6.65;88.62
39897;BME280;25567;48.276;14.242;2023-03-26T00:06:21;97942.97;;;6.75;88.42
39897;BME280;25567;48.276;14.242;2023-03-26T00:08:52;97937.25;;;6.78;88.45
39897;BME280;25567;48.276;14.242;2023-03-26T00:11:21;97933.75;;;6.84;88.62
39897;BME280;25567;48.276;14.242;2023-03-26T00:13:49;97939.13;;;6.96;87.81
39897;BME280;25567;48.276;14.242;2023-03-26T00:16:19;97937.94;;;7.11;86.73
39897;BME280;25567;48.276;14.242;2023-03-26T00:18:46;97938.78;;;7.11;86.39
39897;BME280;25567;48.276;14.242;2023-03-26T00:21:17;97946.41;;;7.20;87.05
39897;BME280;25567;48.276;14.242;2023-03-26T00:23:46;97948.66;;;7.16;86.75
39897;BME280;25567;48.276;14.242;2023-03-26T00:26:15;97942.34;;;7.17;86.42
39897;BME280;25567;48.276;14.242;2023-03-26T00:28:43;97936.44;;;7.22;85.92
39897;BME280;25567;48.276;14.242;2023-03-26T00:31:12;97927.47;;;7.23;86.42
39897;BME280;25567;48.276;14.242;2023-03-26T00:33:40;65102.69;;;-146.18;100.00
39897;BME280;25567;48.276;14.242;2023-03-26T00:36:10;97930.34;;;7.40;85.12
39897;BME280;25567;48.276;14.242;2023-03-26T00:38:40;65102.69;;;-146.18;100.00
39897;BME280;25567;48.276;14.242;2023-03-26T00:41:16;65102.69;;;-146.18;100.00
39897;BME280;25567;48.276;14.242;2023-03-26T00:44:06;97930.34;;;7.40;85.12
39897;BME280;25567;48.276;14.242;2023-03-26T00:46:43;65102.69;;;-146.18;100.00
39897;BME280;25567;48.276;14.242;2023-03-26T00:49:09;65102.69;;;-146.18;100.00
39897;BME280;25567;48.276;14.242;2023-03-26T00:51:36;65102.69;;;-146.18;nan
39897;BME280;25567;48.276;14.242;2023-03-26T00:54:05;65102.69;;;-146.18;100.00
39897;BME280;25567;48.276;14.242;2023-03-26T00:56:33;65102.69;;;-146.18;100.00
39897;BME280;25567;48.276;14.242;2023-03-26T00:59:00;65102.69;;;-146.18;100.00
39897;BME280;25567;48.276;14.242;2023-03-26T01:01:28;65102.69;;;-146.18;100.00
39897;BME280;25567;48.276;14.242;2023-03-26T01:03:58;97905.94;;;7.63;83.45
39897;BME280;25567;48.276;14.242;2023-03-26T01:06:44;65102.69;;;-146.18;100.00
39897;BME280;25567;48.276;14.242;2023-03-26T01:11:48;65102.69;;;-146.18;100.00
39897;BME280;25567;48.276;14.242;2023-03-26T01:14:28;65102.69;;;-146.18;100.00
39897;BME280;25567;48.276;14.242;2023-03-26T01:17:00;65102.69;;;-146.18;100.00
39897;BME280;25567;48.276;14.242;2023-03-26T01:22:17;65102.69;;;-146.18;100.00
39897;BME280;25567;48.276;14.242;2023-03-26T01:24:44;65102.69;;;-146.18;100.00
39897;BME280;25567;48.276;14.242;2023-03-26T01:30:32;65102.69;;;-146.18;100.00
39897;BME280;25567;48.276;14.242;2023-03-26T01:33:04;65102.69;;;-146.18;100.00
39897;BME280;25567;48.276;14.242;2023-03-26T01:35:51;65102.69;;;-146.18;100.00
39897;BME280;25567;48.276;14.242;2023-03-26T01:43:41;65102.69;;;-146.18;100.00
39897;BME280;25567;48.276;14.242;2023-03-26T01:46:13;65102.69;;;-146.18;100.00
39897;BME280;25567;48.276;14.242;2023-03-26T01:48:43;65102.69;;;-146.18;100.00
39897;BME280;25567;48.276;14.242;2023-03-26T01:51:23;65102.69;;;-146.18;100.00
39897;BME280;25567;48.276;14.242;2023-03-26T01:53:51;65102.69;;;-146.18;100.00
39897;BME280;25567;48.276;14.242;2023-03-26T01:56:38;65102.69;;;-146.18;100.00
39897;BME280;25567;48.276;14.242;2023-03-26T02:02:14;65102.69;;;-146.18;100.00
39897;BME280;25567;48.276;14.242;2023-03-26T02:05:03;65102.69;;;-146.18;100.00
39897;BME280;25567;48.276;14.242;2023-03-26T02:07:41;65102.69;;;-146.18;100.00
39897;BME280;25567;48.276;14.242;2023-03-26T02:10:14;65102.69;;;-146.18;100.00
39897;BME280;25567;48.276;14.242;2023-03-26T02:12:42;65102.69;;;-146.18;100.00
39897;BME280;25567;48.276;14.242;2023-03-26T02:15:10;65102.69;;;-146.18;100.00
39897;BME280;25567;48.276;14.242;2023-03-26T02:17:37;65102.69;;;-146.18;100.00
39897;BME280;25567;48.276;14.242;2023-03-26T02:20:08;65102.69;;;-146.18;100.00
39897;BME280;25567;48.276;14.242;2023-03-26T02:22:37;65102.69;;;-146.18;100.00
39897;BME280;25567;48.276;14.242;2023-03-26T02:25:09;65102.69;;;-146.18;100.00
39897;BME280;25567;48.276;14.242;2023-03-26T02:27:37;65102.69;;;-146.18;100.00
39897;BME280;25567;48.276;14.242;2023-03-26T02:30:08;65102.69;;;-146.18;100.00
39897;BME280;25567;48.276;14.242;2023-03-26T02:32:36;65102.69;;;-146.18;100.00
39897;BME280;25567;48.276;14.242;2023-03-26T02:35:04;65102.69;;;-146.18;100.00
39897;BME280;25567;48.276;14.242;2023-03-26T02:37:32;65102.69;;;-146.18;100.00
39897;BME280;25567;48.276;14.242;2023-03-26T02:39:59;65102.69;;;-146.18;100.00
39897;BME280;25567;48.276;14.242;2023-03-26T02:42:26;65102.69;;;-146.18;100.00
39897;BME280;25567;48.276;14.242;2023-03-26T02:44:53;65102.69;;;-146.18;100.00
39897;BME280;25567;48.276;14.242;2023-03-26T02:47:21;65102.69;;;-146.18;100.00
39897;BME280;25567;48.276;14.242;2023-03-26T02:49:48;65102.69;;;-146.18;100.00
39897;BME280;25567;48.276;14.242;2023-03-26T02:52:14;65102.69;;;-146.18;100.00
39897;BME280;25567;48.276;14.242;2023-03-26T02:54:44;65102.69;;;-146.18;100.00
39897;BME280;25567;48.276;14.242;2023-03-26T02:57:11;65102.69;;;-146.18;100.00
39897;BME280;25567;48.276;14.242;2023-03-26T02:59:37;65102.69;;;-146.18;100.00
39897;BME280;25567;48.276;14.242;2023-03-26T03:02:04;65102.69;;;-146.18;100.00
39897;BME280;25567;48.276;14.242;2023-03-26T03:04:31;65102.69;;;-146.18;100.00
39897;BME280;25567;48.276;14.242;2023-03-26T03:06:57;65102.69;;;-146.18;100.00
39897;BME280;25567;48.276;14.242;2023-03-26T03:09:25;65102.69;;;-146.18;100.00
39897;BME280;25567;48.276;14.242;2023-03-26T03:11:51;65102.69;;;-146.18;100.00
39897;BME280;25567;48.276;14.242;2023-03-26T03:14:19;65102.69;;;-146.18;100.00
39897;BME280;25567;48.276;14.242;2023-03-26T03:16:45;65102.69;;;-146.18;100.00
39897;BME280;25567;48.276;14.242;2023-03-26T03:19:13;65102.69;;;-146.18;100.00
39897;BME280;25567;48.276;14.242;2023-03-26T03:21:40;65102.69;;;-146.18;100.00
39897;BME280;25567;48.276;14.242;2023-03-26T03:24:08;65102.69;;;-146.18;100.00
39897;BME280;25567;48.276;14.242;2023-03-26T03:26:34;65102.69;;;-146.18;100.00
39897;BME280;25567;48.276;14.242;2023-03-26T03:29:01;65102.69;;;-146.18;100.00
39897;BME280;25567;48.276;14.242;2023-03-26T03:31:28;65102.69;;;-146.18;100.00
39897;BME280;25567;48.276;14.242;2023-03-26T03:33:55;65102.69;;;-146.18;100.00
39897;BME280;25567;48.276;14.242;2023-03-26T03:36:23;65102.69;;;-146.18;100.00
39897;BME280;25567;48.276;14.242;2023-03-26T03:38:53;65102.69;;;-146.18;100.00
39897;BME280;25567;48.276;14.242;2023-03-26T03:41:20;65102.69;;;-146.18;100.00
39897;BME280;25567;48.276;14.242;2023-03-26T03:43:47;65102.69;;;-146.18;100.00
39897;BME280;25567;48.276;14.242;2023-03-26T03:46:13;65102.69;;;-146.18;100.00
39897;BME280;25567;48.276;14.242;2023-03-26T03:48:40;65102.69;;;-146.18;100.00
39897;BME280;25567;48.276;14.242;2023-03-26T03:51:08;65102.69;;;-146.18;100.00
39897;BME280;25567;48.276;14.242;2023-03-26T03:53:35;65102.69;;;-146.18;100.00
39897;BME280;25567;48.276;14.242;2023-03-26T03:56:03;65102.69;;;-146.18;100.00
39897;BME280;25567;48.276;14.242;2023-03-26T03:58:35;65102.69;;;-146.18;100.00
39897;BME280;25567;48.276;14.242;2023-03-26T04:01:02;65102.69;;;-146.18;100.00
39897;BME280;25567;48.276;14.242;2023-03-26T04:03:30;65102.69;;;-146.18;100.00
39897;BME280;25567;48.276;14.242;2023-03-26T04:06:00;65102.69;;;-146.18;100.00
39897;BME280;25567;48.276;14.242;2023-03-26T04:08:27;65102.69;;;-146.18;100.00
39897;BME280;25567;48.276;14.242;2023-03-26T04:10:53;65102.69;;;-146.18;100.00
39897;BME280;25567;48.276;14.242;2023-03-26T04:13:20;65102.69;;;-146.18;100.00
39897;BME280;25567;48.276;14.242;2023-03-26T04:15:47;65102.69;;;-146.18;100.00
39897;BME280;25567;48.276;14.242;2023-03-26T04:18:14;65102.69;;;-146.18;100.00
39897;BME280;25567;48.276;14.242;2023-03-26T04:20:43;65102.69;;;-146.18;100.00
39897;BME280;25567;48.276;14.242;2023-03-26T04:23:13;65102.69;;;-146.18;100.00
39897;BME280;25567;48.276;14.242;2023-03-26T04:25:42;65102.69;;;-146.18;100.00
39897;BME280;25567;48.276;14.242;2023-03-26T04:28:24;65102.69;;;-146.18;100.00
39897;BME280;25567;48.276;14.242;2023-03-26T04:30:54;65102.69;;;-146.18;100.00
39897;BME280;25567;48.276;14.242;2023-03-26T04:33:28;65102.69;;;-146.18;100.00
39897;BME280;25567;48.276;14.242;2023-03-26T04:35:56;65102.69;;;-146.18;100.00
39897;BME280;25567;48.276;14.242;2023-03-26T04:38:32;65102.69;;;-146.18;100.00
39897;BME280;25567;48.276;14.242;2023-03-26T04:41:00;65102.69;;;-146.18;100.00
39897;BME280;25567;48.276;14.242;2023-03-26T04:43:29;65102.69;;;-146.18;100.00
39897;BME280;25567;48.276;14.242;2023-03-26T04:45:56;65102.69;;;-146.18;100.00
39897;BME280;25567;48.276;14.242;2023-03-26T04:48:23;65102.69;;;-146.18;100.00
39897;BME280;25567;48.276;14.242;2023-03-26T04:50:50;65102.69;;;-146.18;100.00
39897;BME280;25567;48.276;14.242;2023-03-26T04:53:19;65102.69;;;-146.18;100.00
39897;BME280;25567;48.276;14.242;2023-03-26T04:55:55;65102.69;;;-146.18;100.00
39897;BME280;25567;48.276;14.242;2023-03-26T04:58:22;65102.69;;;-146.18;100.00
39897;BME280;25567;48.276;14.242;2023-03-26T05:00:57;65102.69;;;-146.18;100.00
39897;BME280;25567;48.276;14.242;2023-03-26T05:03:36;65102.69;;;-146.18;100.00
39897;BME280;25567;48.276;14.242;2023-03-26T05:06:10;65102.69;;;-146.18;100.00
39897;BME280;25567;48.276;14.242;2023-03-26T05:08:36;65102.69;;;-146.18;100.00
39897;BME280;25567;48.276;14.242;2023-03-26T05:11:03;65102.69;;;-146.18;100.00
39897;BME280;25567;48.276;14.242;2023-03-26T05:13:32;65102.69;;;-146.18;100.00
39897;BME280;25567;48.276;14.242;2023-03-26T05:15:59;65102.69;;;-146.18;100.00
39897;BME280;25567;48.276;14.242;2023-03-26T05:18:26;65102.69;;;-146.18;100.00
39897;BME280;25567;48.276;14.242;2023-03-26T05:20:52;65102.69;;;-146.18;100.00
39897;BME280;25567;48.276;14.242;2023-03-26T05:23:23;65102.69;;;-146.18;100.00
39897;BME280;25567;48.276;14.242;2023-03-26T05:25:49;65102.69;;;-146.18;100.00
39897;BME280;25567;48.276;14.242;2023-03-26T05:28:17;65102.69;;;-146.18;100.00
39897;BME280;25567;48.276;14.242;2023-03-26T05:30:46;65102.69;;;-146.18;100.00
39897;BME280;25567;48.276;14.242;2023-03-26T05:33:12;65102.69;;;-146.18;100.00
39897;BME280;25567;48.276;14.242;2023-03-26T05:35:39;65102.69;;;-146.18;100.00
39897;BME280;25567;48.276;14.242;2023-03-26T05:38:06;65102.69;;;-146.18;100.00
39897;BME280;25567;48.276;14.242;2023-03-26T05:40:33;65102.69;;;-146.18;100.00
39897;BME280;25567;48.276;14.242;2023-03-26T05:42:59;65102.69;;;-146.18;100.00
39897;BME280;25567;48.276;14.242;2023-03-26T05:45:26;65102.69;;;-146.18;100.00
39897;BME280;25567;48.276;14.242;2023-03-26T05:47:53;65102.69;;;-146.18;100.00
39897;BME280;25567;48.276;14.242;2023-03-26T05:50:21;65102.69;;;-146.18;100.00
39897;BME280;25567;48.276;14.242;2023-03-26T05:52:48;65102.69;;;-146.18;100.00
39897;BME280;25567;48.276;14.242;2023-03-26T05:55:18;65102.69;;;-146.18;100.00
39897;BME280;25567;48.276;14.242;2023-03-26T05:57:45;65102.69;;;-146.18;100.00
39897;BME280;25567;48.276;14.242;2023-03-26T06:00:12;65102.69;;;-146.18;100.00
39897;BME280;25567;48.276;14.242;2023-03-26T06:02:40;65102.69;;;-146.18;100.00
39897;BME280;25567;48.276;14.242;2023-03-26T06:05:08;65102.69;;;-146.18;100.00
39897;BME280;25567;48.276;14.242;2023-03-26T06:07:35;65102.69;;;-146.18;100.00
39897;BME280;25567;48.276;14.242;2023-03-26T06:10:02;65102.69;;;-146.18;100.00
39897;BME280;25567;48.276;14.242;2023-03-26T06:12:29;65102.69;;;-146.18;100.00
39897;BME280;25567;48.276;14.242;2023-03-26T06:14:55;65102.69;;;-146.18;100.00
39897;BME280;25567;48.276;14.242;2023-03-26T06:17:22;65102.69;;;-146.18;100.00
39897;BME280;25567;48.276;14.242;2023-03-26T06:19:49;65102.69;;;-146.18;100.00
39897;BME280;25567;48.276;14.242;2023-03-26T06:22:15;65102.69;;;-146.18;100.00
39897;BME280;25567;48.276;14.242;2023-03-26T06:24:44;65102.69;;;-146.18;100.00
39897;BME280;25567;48.276;14.242;2023-03-26T06:27:11;65102.69;;;-146.18;100.00
39897;BME280;25567;48.276;14.242;2023-03-26T06:29:37;65102.69;;;-146.18;100.00
39897;BME280;25567;48.276;14.242;2023-03-26T06:32:04;65102.69;;;-146.18;100.00
39897;BME280;25567;48.276;14.242;2023-03-26T06:34:44;65102.69;;;-146.18;100.00
39897;BME280;25567;48.276;14.242;2023-03-26T06:37:11;65102.69;;;-146.18;100.00
39897;BME280;25567;48.276;14.242;2023-03-26T06:39:37;65102.69;;;-146.18;100.00
39897;BME280;25567;48.276;14.242;2023-03-26T06:42:04;65102.69;;;-146.18;100.00
39897;BME280;25567;48.276;14.242;2023-03-26T06:44:31;65102.69;;;-146.18;100.00
39897;BME280;25567;48.276;14.242;2023-03-26T06:46:57;65102.69;;;-146.18;100.00
39897;BME280;25567;48.276;14.242;2023-03-26T06:49:24;65102.69;;;-146.18;100.00
39897;BME280;25567;48.276;14.242;2023-03-26T06:51:51;65102.69;;;-146.18;100.00
39897;BME280;25567;48.276;14.242;2023-03-26T06:54:18;65102.69;;;-146.18;100.00
39897;BME280;25567;48.276;14.242;2023-03-26T06:56:44;65102.69;;;-146.18;100.00
39897;BME280;25567;48.276;14.242;2023-03-26T06:59:11;65102.69;;;-146.18;100.00
39897;BME280;25567;48.276;14.242;2023-03-26T07:01:38;65102.69;;;-146.18;100.00
39897;BME280;25567;48.276;14.242;2023-03-26T07:04:04;65102.69;;;-146.18;100.00
39897;BME280;25567;48.276;14.242;2023-03-26T07:06:31;65102.69;;;-146.18;100.00
39897;BME280;25567;48.276;14.242;2023-03-26T07:08:58;65102.69;;;-146.18;100.00
39897;BME280;25567;48.276;14.242;2023-03-26T07:11:25;65102.69;;;-146.18;100.00
39897;BME280;25567;48.276;14.242;2023-03-26T07:13:52;65102.69;;;-146.18;100.00
39897;BME280;25567;48.276;14.242;2023-03-26T07:16:21;65102.69;;;-146.18;100.00
39897;BME280;25567;48.276;14.242;2023-03-26T07:18:48;65102.69;;;-146.18;100.00
39897;BME280;25567;48.276;14.242;2023-03-26T07:21:15;65102.69;;;-146.18;100.00
39897;BME280;25567;48.276;14.242;2023-03-26T07:23:42;65102.69;;;-146.18;100.00
39897;BME280;25567;48.276;14.242;2023-03-26T07:26:24;65102.69;;;-146.18;100.00
39897;BME280;25567;48.276;14.242;2023-03-26T07:28:59;65102.69;;;-146.18;100.00
39897;BME280;25567;48.276;14.242;2023-03-26T07:31:38;65102.69;;;-146.18;100.00
39897;BME280;25567;48.276;14.242;2023-03-26T07:34:20;65102.69;;;-146.18;100.00
39897;BME280;25567;48.276;14.242;2023-03-26T07:37:06;65102.69;;;-146.18;100.00
39897;BME280;25567;48.276;14.242;2023-03-26T07:39:56;65102.69;;;-146.18;100.00
39897;BME280;25567;48.276;14.242;2023-03-26T07:45:41;65102.69;;;-146.18;100.00
39897;BME280;25567;48.276;14.242;2023-03-26T07:48:17;65102.69;;;-146.18;100.00
39897;BME280;25567;48.276;14.242;2023-03-26T07:50:44;65102.69;;;-146.18;100.00
39897;BME280;25567;48.276;14.242;2023-03-26T07:53:11;65102.69;;;-146.18;100.00
39897;BME280;25567;48.276;14.242;2023-03-26T08:01:47;65102.69;;;-146.18;100.00
39897;BME280;25567;48.276;14.242;2023-03-26T08:07:03;65102.69;;;-146.18;100.00
39897;BME280;25567;48.276;14.242;2023-03-26T08:09:40;65102.69;;;-146.18;100.00
39897;BME280;25567;48.276;14.242;2023-03-26T08:12:29;65102.69;;;-146.18;100.00
39897;BME280;25567;48.276;14.242;2023-03-26T08:17:51;65102.69;;;-146.18;100.00
39897;BME280;25567;48.276;14.242;2023-03-26T08:20:22;65102.69;;;-146.18;100.00
39897;BME280;25567;48.276;14.242;2023-03-26T08:23:00;65102.69;;;-146.18;100.00
39897;BME280;25567;48.276;14.242;2023-03-26T08:25:34;65102.69;;;-146.18;100.00
39897;BME280;25567;48.276;14.242;2023-03-26T08:30:58;65102.69;;;-146.18;100.00
39897;BME280;25567;48.276;14.242;2023-03-26T08:33:29;65102.69;;;-146.18;100.00
39897;BME280;25567;48.276;14.242;2023-03-26T08:35:56;65102.69;;;-146.18;100.00
39897;BME280;25567;48.276;14.242;2023-03-26T08:38:24;65102.69;;;-146.18;100.00
39897;BME280;25567;48.276;14.242;2023-03-26T08:41:17;65102.69;;;-146.18;100.00
39897;BME280;25567;48.276;14.242;2023-03-26T08:46:58;65102.69;;;-146.18;100.00
39897;BME280;25567;48.276;14.242;2023-03-26T08:54:50;65102.69;;;-146.18;100.00
39897;BME280;25567;48.276;14.242;2023-03-26T09:05:38;65102.69;;;-146.18;100.00
39897;BME280;25567;48.276;14.242;2023-03-26T09:08:35;65102.69;;;-146.18;100.00
39897;BME280;25567;48.276;14.242;2023-03-26T09:39:01;65102.69;;;-146.18;100.00
39897;BME280;25567;48.276;14.242;2023-03-26T09:44:19;65102.69;;;-146.18;100.00
39897;BME280;25567;48.276;14.242;2023-03-26T09:50:14;65102.69;;;-146.18;100.00
39897;BME280;25567;48.276;14.242;2023-03-26T10:41:06;65102.69;;;-146.18;100.00
39897;BME280;25567;48.276;14.242;2023-03-26T10:43:43;65102.69;;;-146.18;100.00
39897;BME280;25567;48.276;14.242;2023-03-26T10:52:10;65102.69;;;-146.18;100.00
39897;BME280;25567;48.276;14.242;2023-03-26T10:54:54;65102.69;;;-146.18;100.00
39897;BME280;25567;48.276;14.242;2023-03-26T10:59:48;65102.69;;;-146.18;100.00
39897;BME280;25567;48.276;14.242;2023-03-26T11:02:36;65102.69;;;-146.18;100.00
39897;BME280;25567;48.276;14.242;2023-03-26T11:05:32;65102.69;;;-146.18;100.00
39897;BME280;25567;48.276;14.242;2023-03-26T11:11:00;65102.69;;;-146.18;100.00
39897;BME280;25567;48.276;14.242;2023-03-26T11:13:52;65102.69;;;-146.18;100.00
39897;BME280;25567;48.276;14.242;2023-03-26T11:16:31;65102.69;;;-146.18;100.00
39897;BME280;25567;48.276;14.242;2023-03-26T11:19:06;65102.69;;;-146.18;100.00
39897;BME280;25567;48.276;14.242;2023-03-26T11:27:14;97391.44;;;11.69;56.67
39897;BME280;25567;48.276;14.242;2023-03-26T11:32:19;65102.69;;;-146.18;100.00
39897;BME280;25567;48.276;14.242;2023-03-26T11:35:01;65102.69;;;-146.18;100.00
39897;BME280;25567;48.276;14.242;2023-03-26T11:37:38;65102.69;;;-146.18;100.00
39897;BME280;25567;48.276;14.242;2023-03-26T11:40:14;65102.69;;;-146.18;100.00
39897;BME280;25567;48.276;14.242;2023-03-26T11:42:43;65102.69;;;-146.18;100.00
39897;BME280;25567;48.276;14.242;2023-03-26T11:45:17;65102.69;;;-146.18;100.00
39897;BME280;25567;48.276;14.242;2023-03-26T11:47:51;65102.69;;;-146.18;100.00
39897;BME280;25567;48.276;14.242;2023-03-26T11:50:24;65102.69;;;-146.18;100.00
39897;BME280;25567;48.276;14.242;2023-03-26T11:52:56;65102.69;;;-146.18;100.00
39897;BME280;25567;48.276;14.242;2023-03-26T11:55:24;65102.69;;;-146.18;100.00
39897;BME280;25567;48.276;14.242;2023-03-26T11:57:54;65102.69;;;-146.18;100.00
39897;BME280;25567;48.276;14.242;2023-03-26T12:00:23;65102.69;;;-146.18;100.00
39897;BME280;25567;48.276;14.242;2023-03-26T12:02:57;65102.69;;;-146.18;100.00
39897;BME280;25567;48.276;14.242;2023-03-26T12:05:26;65102.69;;;-146.18;100.00
39897;BME280;25567;48.276;14.242;2023-03-26T12:08:02;65102.69;;;-146.18;100.00
39897;BME280;25567;48.276;14.242;2023-03-26T12:10:38;65102.69;;;-146.18;100.00
39897;BME280;25567;48.276;14.242;2023-03-26T12:16:11;65102.69;;;-146.18;100.00
39897;BME280;25567;48.276;14.242;2023-03-26T12:18:41;65102.69;;;-146.18;100.00
39897;BME280;25567;48.276;14.242;2023-03-26T12:21:17;65102.69;;;-146.18;100.00
39897;BME280;25567;48.276;14.242;2023-03-26T12:24:02;97291.38;;;12.06;55.67
39897;BME280;25567;48.276;14.242;2023-03-26T12:26:41;65102.69;;;-146.18;100.00
39897;BME280;25567;48.276;14.242;2023-03-26T12:29:13;97277.53;;;12.09;56.15
39897;BME280;25567;48.276;14.242;2023-03-26T12:32:01;65102.69;;;-146.18;100.00
39897;BME280;25567;48.276;14.242;2023-03-26T12:34:31;65102.69;;;-146.18;100.00
39897;BME280;25567;48.276;14.242;2023-03-26T12:37:04;65102.69;;;-146.18;100.00
39897;BME280;25567;48.276;14.242;2023-03-26T12:39:40;65102.69;;;-146.18;100.00
39897;BME280;25567;48.276;14.242;2023-03-26T12:42:31;65102.69;;;-146.18;100.00
39897;BME280;25567;48.276;14.242;2023-03-26T12:45:21;65102.69;;;-146.18;100.00
39897;BME280;25567;48.276;14.242;2023-03-26T12:47:50;65102.69;;;-146.18;100.00
39897;BME280;25567;48.276;14.242;2023-03-26T13:06:40;65102.69;;;-146.18;100.00
39897;BME280;25567;48.276;14.242;2023-03-26T13:09:45;65102.69;;;-146.18;100.00
39897;BME280;25567;48.276;14.242;2023-03-26T13:17:39;65102.69;;;-146.18;100.00
39897;BME280;25567;48.276;14.242;2023-03-26T13:20:26;65102.69;;;-146.18;100.00
39897;BME280;25567;48.276;14.242;2023-03-26T13:23:08;65102.69;;;-146.18;100.00
39897;BME280;25567;48.276;14.242;2023-03-26T13:26:38;65102.69;;;-146.18;100.00
39897;BME280;25567;48.276;14.242;2023-03-26T13:29:06;65102.69;;;-146.18;100.00
39897;BME280;25567;48.276;14.242;2023-03-26T13:31:47;65102.69;;;-146.18;100.00
39897;BME280;25567;48.276;14.242;2023-03-26T13:34:48;65102.69;;;-146.18;100.00
39897;BME280;25567;48.276;14.242;2023-03-26T13:45:57;65102.69;;;-146.18;100.00
39897;BME280;25567;48.276;14.242;2023-03-26T13:48:30;65102.69;;;-146.18;100.00
39897;BME280;25567;48.276;14.242;2023-03-26T13:51:08;65102.69;;;-146.18;100.00
39897;BME280;25567;48.276;14.242;2023-03-26T13:53:49;65102.69;;;-146.18;100.00
39897;BME280;25567;48.276;14.242;2023-03-26T13:56:28;65102.69;;;-146.18;100.00
39897;BME280;25567;48.276;14.242;2023-03-26T13:59:02;65102.69;;;-146.18;100.00
39897;BME280;25567;48.276;14.242;2023-03-26T14:01:35;65102.69;;;-146.18;100.00
39897;BME280;25567;48.276;14.242;2023-03-26T14:06:38;65102.69;;;-146.18;100.00
39897;BME280;25567;48.276;14.242;2023-03-26T14:11:55;65102.69;;;-146.18;100.00
39897;BME280;25567;48.276;14.242;2023-03-26T14:17:16;65102.69;;;-146.18;100.00
39897;BME280;25567;48.276;14.242;2023-03-26T14:23:33;65102.69;;;-146.18;100.00
39897;BME280;25567;48.276;14.242;2023-03-26T14:31:35;65102.69;;;-146.18;100.00
39897;BME280;25567;48.276;14.242;2023-03-26T14:34:15;65102.69;;;-146.18;100.00
39897;BME280;25567;48.276;14.242;2023-03-26T14:36:51;65102.69;;;-146.18;100.00
39897;BME280;25567;48.276;14.242;2023-03-26T14:39:41;65102.69;;;-146.18;100.00
39897;BME280;25567;48.276;14.242;2023-03-26T14:42:23;65102.69;;;-146.18;100.00
39897;BME280;25567;48.276;14.242;2023-03-26T14:45:11;65102.69;;;-146.18;100.00
39897;BME280;25567;48.276;14.242;2023-03-26T14:48:08;65102.69;;;-146.18;100.00
39897;BME280;25567;48.276;14.242;2023-03-26T14:51:05;65102.69;;;-146.18;100.00
39897;BME280;25567;48.276;14.242;2023-03-26T14:53:39;65102.69;;;-146.18;100.00
39897;BME280;25567;48.276;14.242;2023-03-26T14:56:20;65102.69;;;-146.18;100.00
39897;BME280;25567;48.276;14.242;2023-03-26T14:59:21;65102.69;;;-146.18;100.00
39897;BME280;25567;48.276;14.242;2023-03-26T15:05:17;65102.69;;;-146.18;100.00
39897;BME280;25567;48.276;14.242;2023-03-26T15:10:24;65102.69;;;-146.18;100.00
39897;BME280;25567;48.276;14.242;2023-03-26T15:16:13;65102.69;;;-146.18;100.00
39897;BME280;25567;48.276;14.242;2023-03-26T15:22:19;65102.69;;;-146.18;100.00
39897;BME280;25567;48.276;14.242;2023-03-26T15:26:17;65102.69;;;-146.18;100.00
39897;BME280;25567;48.276;14.242;2023-03-26T15:42:33;65102.69;;;-146.18;100.00
39897;BME280;25567;48.276;14.242;2023-03-26T15:48:18;65102.69;;;-146.18;100.00
39897;BME280;25567;48.276;14.242;2023-03-26T15:50:52;65102.69;;;-146.18;100.00
39897;BME280;25567;48.276;14.242;2023-03-26T15:53:52;65102.69;;;-146.18;100.00
39897;BME280;25567;48.276;14.242;2023-03-26T16:02:00;65102.69;;;-146.18;100.00
39897;BME280;25567;48.276;14.242;2023-03-26T16:04:44;65102.69;;;-146.18;100.00
39897;BME280;25567;48.276;14.242;2023-03-26T16:16:13;65102.69;;;-146.18;100.00
39897;BME280;25567;48.276;14.242;2023-03-26T16:18:39;65102.69;;;-146.18;100.00
39897;BME280;25567;48.276;14.242;2023-03-26T16:21:38;65102.69;;;-146.18;100.00
39897;BME280;25567;48.276;14.242;2023-03-26T16:29:20;65102.69;;;-146.18;100.00
39897;BME280;25567;48.276;14.242;2023-03-26T16:34:53;65102.69;;;-146.18;100.00
39897;BME280;25567;48.276;14.242;2023-03-26T16:37:36;65102.69;;;-146.18;100.00
39897;BME280;25567;48.276;14.242;2023-03-26T16:48:04;65102.69;;;-146.18;100.00
39897;BME280;25567;48.276;14.242;2023-03-26T16:50:50;65102.69;;;-146.18;100.00
39897;BME280;25567;48.276;14.242;2023-03-26T17:01:20;65102.69;;;-146.18;100.00
39897;BME280;25567;48.276;14.242;2023-03-26T17:03:58;65102.69;;;-146.18;100.00
39897;BME280;25567;48.276;14.242;2023-03-26T17:09:22;65102.69;;;-146.18;100.00
39897;BME280;25567;48.276;14.242;2023-03-26T17:14:33;65102.69;;;-146.18;100.00
39897;BME280;25567;48.276;14.242;2023-03-26T17:22:11;65102.69;;;-146.18;100.00
39897;BME280;25567;48.276;14.242;2023-03-26T17:24:58;65102.69;;;-146.18;100.00
39897;BME280;25567;48.276;14.242;2023-03-26T17:27:43;65102.69;;;-146.18;100.00
39897;BME280;25567;48.276;14.242;2023-03-26T17:31:12;65102.69;;;-146.18;100.00
39897;BME280;25567;48.276;14.242;2023-03-26T17:33:33;65102.69;;;-146.18;100.00
39897;BME280;25567;48.276;14.242;2023-03-26T17:36:27;65102.69;;;-146.18;100.00